Monday, December 17, 2018, 5:47 AM EST
Back to Local

KHGR, Hagerstown Regional Airport

Location: Hagerstown, MD, United States Lat: 39.7
Local Time: 5:47 AM EST (10:47 GMT) Lon: -77.733
Time Zone: US/Eastern Elev: 705 ft

Show me the last for .
Show Coded

Time T Td Feel RH Dir Speed Gust Alt SLP Vis Weather Sky Remarks
2018-12-17 04:53 43 33 40 67 210° 5 - 29.87 29.91 10 CLR None
2018-12-17 03:53 45 33 43 62 Variable 5 - 29.88 29.92 10 BKN035 None
2018-12-17 02:53 44 35 42 70 300° 5 - 29.90 29.94 10 SCT038 None
2018-12-17 01:53 45 37 42 73 350° 6 - 29.89 29.92 10 BKN034 None
2018-12-17 01:48 45 37 41 75 340° 6 - 29.88 - 10 SCT028 BKN034 None
2018-12-17 00:53 44 37 40 76 330° 7 - 29.89 29.93 10 OVC023 6-hr Min Temp (1am): 39.9°F
6-hr Max Temp (1am): 44.1°F
2018-12-16 23:53 43 36 - 76 - Calm - 29.89 29.93 10 OVC021 24-hr Min Temp (12am): 39.9°F
24-hr Max Temp (12am): 46.0°F
2018-12-16 22:53 43 36 - 76 - Calm - 29.90 29.94 10 OVC023 None
2018-12-16 22:00 42 36 38 78 300° 7 - 29.90 - 10 OVC028 None
2018-12-16 21:53 41 36 35 82 300° 9 - 29.90 29.94 10 OVC030 None
2018-12-16 20:53 40 35 34 82 300° 8 - 29.93 29.97 10 OVC037 None
2018-12-16 20:00 41 36 37 82 330° 6 - 29.93 - 10 FEW028 OVC034 None
2018-12-16 19:53 41 36 38 82 310° 5 - 29.94 29.98 10 OVC028 None
2018-12-16 18:53 40 36 35 85 320° 7 - 29.93 29.97 10 OVC028 6-hr Precip Total (7pm): 0.06"
6-hr Min Temp (7pm): 39.9°F
6-hr Max Temp (7pm): 41.0°F
2018-12-16 18:00 40 37 37 89 320° 5 - 29.91 - 10 OVC028 None
2018-12-16 17:53 40 37 36 89 330° 6 - 29.91 29.95 10 OVC039 None
2018-12-16 16:53 40 36 33 85 350° 10 - 29.90 29.93 10 OVC039 1-hr Precip Total: Trace
2018-12-16 15:53 41 37 36 85 340° 8 - 29.89 29.93 9 -RA OVC039 1-hr Precip Total: 0.02"
6-hr Precip Total (4pm): 0.06"
2018-12-16 15:07 40 36 34 85 360° 9 - 29.89 - 5 -RA BR FEW010 BKN032 OVC038 1-hr Precip Total: 0.01"
2018-12-16 14:53 40 36 33 85 340° 10 - 29.89 29.93 7 -RA SCT009 OVC028 1-hr Precip Total: 0.04"
2018-12-16 14:49 39 36 33 86 340° 9 - 29.89 - 7 -RA FEW009 OVC028 1-hr Precip Total: 0.04"
2018-12-16 14:31 40 36 34 85 360° 9 - 29.88 - 7 -RA SCT007 OVC032 1-hr Precip Total: 0.02"
2018-12-16 13:53 41 37 34 85 350° 12 - 29.87 29.90 5 -RA BR OVC007 1-hr Precip Total: Trace
2018-12-16 13:01 41 37 35 85 350° 10 - 29.87 - 4 BR BKN008 OVC018 None
2018-12-16 12:53 41 36 34 82 350° 13 - 29.87 29.91 6 HZ SCT008 OVC020 1-hr Precip Total: Trace
6-hr Precip Total (1pm): 0.00"
6-hr Min Temp (1pm): 41.0°F
6-hr Max Temp (1pm): 43.0°F
2018-12-16 12:10 42 37 36 82 10° 12 - 29.88 - 10 FEW009 OVC021 None
2018-12-16 11:53 41 36 34 82 10° 12 - 29.88 29.92 10 OVC020 None
2018-12-16 10:53 41 36 35 82 360° 10 - 29.92 29.96 10 FEW008 OVC020 None
2018-12-16 09:53 41 38 35 88 10° 10 - 29.93 29.97 5 BR FEW006 BKN015 OVC022 None
2018-12-16 09:16 42 38 37 85 20° 9 - 29.93 - 4 BR FEW007 OVC017 None
2018-12-16 08:53 42 38 37 85 20° 9 - 29.93 29.97 6 BR OVC017 None
2018-12-16 07:53 43 39 38 85 30° 9 - 29.92 29.96 5 BR FEW009 OVC016 None
2018-12-16 07:39 43 39 38 85 20° 9 - 29.93 - 5 BR SCT008 OVC016 None
2018-12-16 07:14 43 39 38 85 30° 9 - 29.92 - 3 BR BKN006 OVC010 None
2018-12-16 06:53 43 40 38 88 360° 8 - 29.92 29.96 2 BR BKN005 OVC012 1-hr Precip Total: 0.01"
6-hr Precip Total (7am): 0.02"
24-hr Precip Total (7am): 1.56"
6-hr Min Temp (7am): 43.0°F
6-hr Max Temp (7am): 45.0°F
2018-12-16 06:32 43 40 39 88 360° 7 - 29.92 - 2 BR BKN008 OVC015 1-hr Precip Total: 0.01"
2018-12-16 05:53 43 40 37 88 10° 10 - 29.91 29.95 4 -RA BR FEW004 OVC013 1-hr Precip Total: Trace

Support USWX by starting your Amazon purchase here.